createdAt,value
2023-04-28T00:00:57.511Z,5.36
2023-04-28T00:03:28.532Z,5.35
2023-04-28T00:05:57.765Z,5.56
2023-04-28T00:08:27.251Z,5.79
2023-04-28T00:10:55.359Z,6.00
2023-04-28T00:13:23.563Z,6.11
2023-04-28T00:15:53.105Z,6.08
2023-04-28T00:18:21.749Z,5.98
2023-04-28T00:20:51.655Z,6.26
2023-04-28T00:23:19.765Z,6.35
2023-04-28T00:25:52.661Z,6.42
2023-04-28T00:28:32.756Z,6.44
2023-04-28T00:31:02.721Z,6.56
2023-04-28T00:33:30.733Z,6.69
2023-04-28T00:36:03.445Z,6.76
2023-04-28T00:38:32.818Z,6.83
2023-04-28T00:41:00.913Z,6.86
2023-04-28T00:43:29.239Z,6.88
2023-04-28T00:45:57.465Z,6.91
2023-04-28T00:48:26.304Z,6.86
2023-04-28T00:50:54.505Z,6.90
2023-04-28T00:53:24.141Z,6.92
2023-04-28T00:55:54.758Z,6.96
2023-04-28T00:58:23.025Z,6.99
2023-04-28T01:00:51.305Z,6.40
2023-04-28T01:03:19.564Z,6.64
2023-04-28T01:05:48.060Z,6.41
2023-04-28T01:08:16.422Z,6.58
2023-04-28T01:10:46.528Z,6.66
2023-04-28T01:13:28.805Z,6.71
2023-04-28T01:15:57.350Z,6.72
2023-04-28T01:18:25.864Z,6.69
2023-04-28T01:20:54.493Z,6.59
2023-04-28T01:23:22.708Z,6.70
2023-04-28T01:25:52.112Z,6.40
2023-04-28T01:28:20.201Z,6.37
2023-04-28T01:30:48.317Z,6.40
2023-04-28T01:33:16.398Z,6.30
2023-04-28T01:35:44.424Z,6.07
2023-04-28T01:38:12.503Z,5.70
2023-04-28T01:40:40.676Z,5.60
2023-04-28T01:43:10.103Z,5.56
2023-04-28T01:45:38.135Z,5.66
2023-04-28T01:48:06.738Z,5.73
2023-04-28T01:50:34.952Z,5.87
2023-04-28T01:53:05.808Z,5.63
2023-04-28T01:55:33.947Z,5.60
2023-04-28T01:58:02.252Z,5.81
2023-04-28T02:00:33.144Z,5.71
2023-04-28T02:03:01.322Z,5.80
2023-04-28T02:05:29.566Z,5.95
2023-04-28T02:07:57.600Z,6.10
2023-04-28T02:10:26.549Z,6.17
2023-04-28T02:12:55.067Z,6.03
2023-04-28T02:15:23.301Z,6.17
2023-04-28T02:17:53.073Z,6.09
2023-04-28T02:20:21.124Z,5.96
2023-04-28T02:22:50.725Z,6.00
2023-04-28T02:25:19.042Z,6.02
2023-04-28T02:27:47.223Z,5.98
2023-04-28T02:30:15.476Z,6.01
2023-04-28T02:32:43.557Z,5.99
2023-04-28T02:35:13.105Z,5.92
2023-04-28T02:37:41.232Z,5.81
2023-04-28T02:40:10.212Z,6.05
2023-04-28T02:42:38.334Z,6.09
2023-04-28T02:45:08.315Z,6.19
2023-04-28T02:47:36.454Z,6.18
2023-04-28T02:50:04.630Z,6.23
2023-04-28T02:52:34.121Z,6.29
2023-04-28T02:55:03.854Z,6.29
2023-04-28T02:57:32.324Z,6.33
2023-04-28T03:00:00.464Z,6.32
2023-04-28T03:02:33.288Z,6.22
2023-04-28T03:05:02.091Z,6.04
2023-04-28T03:07:30.238Z,6.04
2023-04-28T03:09:59.701Z,6.08
2023-04-28T03:12:28.127Z,6.11
2023-04-28T03:14:56.383Z,6.08
2023-04-28T03:17:24.558Z,6.06
2023-04-28T03:19:52.839Z,6.04
2023-04-28T03:22:21.035Z,6.01
2023-04-28T03:24:49.590Z,6.03
2023-04-28T03:27:19.178Z,5.91
2023-04-28T03:29:47.229Z,5.89
2023-04-28T03:32:16.666Z,5.91
2023-04-28T03:34:45.362Z,5.82
2023-04-28T03:37:13.996Z,5.79
2023-04-28T03:39:42.327Z,5.80
2023-04-28T03:42:10.481Z,5.84
2023-04-28T03:44:58.036Z,5.89
2023-04-28T03:47:26.196Z,5.87
2023-04-28T03:49:54.247Z,5.90
2023-04-28T03:52:22.692Z,5.86
2023-04-28T03:54:50.761Z,5.86
2023-04-28T03:57:19.931Z,5.89
2023-04-28T03:59:48.102Z,5.93
2023-04-28T04:02:19.115Z,5.93
2023-04-28T04:04:47.496Z,5.93
2023-04-28T04:07:15.782Z,5.93
2023-04-28T04:09:43.902Z,5.97
2023-04-28T04:12:12.208Z,5.97
2023-04-28T04:14:40.734Z,5.89
2023-04-28T04:17:08.888Z,5.90
2023-04-28T04:19:38.337Z,5.91
2023-04-28T04:22:06.570Z,5.91
2023-04-28T04:24:34.716Z,5.86
2023-04-28T04:27:09.554Z,5.87
2023-04-28T04:29:42.297Z,5.90
2023-04-28T04:32:14.225Z,5.93
2023-04-28T04:34:44.999Z,5.97
2023-04-28T04:37:13.258Z,6.03
2023-04-28T04:39:47.648Z,6.07
2023-04-28T04:42:25.427Z,6.11
2023-04-28T04:45:09.786Z,6.11
2023-04-28T04:47:38.041Z,6.12
2023-04-28T04:50:09.051Z,6.18
2023-04-28T04:52:37.488Z,6.25
2023-04-28T04:55:06.831Z,6.26
2023-04-28T04:57:38.389Z,6.30
2023-04-28T05:00:07.610Z,6.36
2023-04-28T05:02:36.338Z,6.38
2023-04-28T05:05:20.449Z,6.46
2023-04-28T05:07:58.422Z,6.54
2023-04-28T05:10:27.497Z,6.73
2023-04-28T05:12:56.119Z,6.86
2023-04-28T05:15:24.348Z,6.97
2023-04-28T05:18:13.914Z,7.15
2023-04-28T05:20:43.354Z,7.19
2023-04-28T05:23:12.548Z,7.24
2023-04-28T05:25:40.644Z,7.33
2023-04-28T05:28:10.465Z,7.30
2023-04-28T05:30:38.673Z,7.44
2023-04-28T05:33:06.809Z,7.49
2023-04-28T05:35:35.161Z,7.70
2023-04-28T05:38:05.079Z,7.76
2023-04-28T05:40:33.122Z,8.10
2023-04-28T05:43:01.952Z,8.21
2023-04-28T05:45:30.032Z,8.39
2023-04-28T05:47:59.518Z,8.55
2023-04-28T05:50:28.008Z,8.68
2023-04-28T05:52:56.106Z,8.84
2023-04-28T05:55:27.002Z,8.87
2023-04-28T05:57:55.651Z,9.01
2023-04-28T06:00:23.693Z,9.10
2023-04-28T06:02:54.934Z,9.09
2023-04-28T06:05:24.268Z,9.03
2023-04-28T06:07:56.158Z,9.00
2023-04-28T06:10:27.126Z,8.99
2023-04-28T06:12:55.207Z,9.15
2023-04-28T06:15:23.199Z,9.20
2023-04-28T06:17:51.537Z,9.49
2023-04-28T06:20:20.665Z,9.62
2023-04-28T06:22:48.915Z,9.44
2023-04-28T06:25:16.986Z,9.37
2023-04-28T06:27:48.159Z,9.84
2023-04-28T06:30:20.382Z,9.70
2023-04-28T06:32:48.564Z,9.86
2023-04-28T06:35:17.697Z,10.07
2023-04-28T06:37:45.847Z,10.03
2023-04-28T06:40:13.932Z,10.10
2023-04-28T06:42:48.727Z,10.23
2023-04-28T06:45:21.805Z,10.44
2023-04-28T06:47:49.976Z,10.50
2023-04-28T06:50:18.046Z,10.48
2023-04-28T06:52:46.106Z,10.75
2023-04-28T06:55:17.220Z,10.92
2023-04-28T06:57:45.383Z,11.17
2023-04-28T07:00:18.085Z,11.28
2023-04-28T07:02:46.293Z,11.34
2023-04-28T07:05:16.412Z,11.10
2023-04-28T07:07:44.931Z,11.33
2023-04-28T07:10:13.479Z,11.12
2023-04-28T07:12:41.563Z,11.60
2023-04-28T07:15:10.564Z,11.81
2023-04-28T07:17:40.097Z,11.96
2023-04-28T07:20:09.274Z,12.13
2023-04-28T07:22:38.636Z,12.01
2023-04-28T07:25:06.937Z,11.86
2023-04-28T07:27:34.958Z,12.30
2023-04-28T07:30:11.594Z,12.27
2023-04-28T07:32:48.411Z,11.96
2023-04-28T07:35:16.610Z,12.27
2023-04-28T07:37:44.782Z,12.19
2023-04-28T07:40:17.862Z,12.42
2023-04-28T07:42:45.962Z,12.71
2023-04-28T07:45:14.578Z,13.05
2023-04-28T07:47:42.727Z,13.09
2023-04-28T07:50:13.367Z,13.10
2023-04-28T07:52:41.516Z,13.11
2023-04-28T07:55:10.000Z,12.70
2023-04-28T07:57:38.122Z,13.06
2023-04-28T08:00:07.581Z,12.61
2023-04-28T08:02:41.493Z,13.05
2023-04-28T08:05:11.042Z,12.95
2023-04-28T08:07:40.618Z,12.88
2023-04-28T08:10:10.855Z,13.64
2023-04-28T08:12:40.860Z,13.39
2023-04-28T08:15:10.846Z,13.62
2023-04-28T08:17:39.488Z,13.61
2023-04-28T08:20:09.309Z,13.67
2023-04-28T08:22:37.339Z,13.86
2023-04-28T08:25:08.142Z,13.99
2023-04-28T08:27:38.098Z,13.86
2023-04-28T08:30:07.280Z,13.93
2023-04-28T08:32:35.330Z,14.20
2023-04-28T08:35:03.542Z,14.22
2023-04-28T08:37:32.058Z,14.43
2023-04-28T08:40:04.879Z,14.43
2023-04-28T08:42:35.858Z,14.56
2023-04-28T08:45:05.590Z,14.29
2023-04-28T08:47:36.174Z,14.01
2023-04-28T08:50:06.055Z,13.91
2023-04-28T08:52:34.896Z,14.29
2023-04-28T08:55:08.397Z,14.22
2023-04-28T08:57:41.334Z,13.98
2023-04-28T09:00:10.733Z,14.39
2023-04-28T09:02:42.323Z,14.50
2023-04-28T09:05:12.123Z,14.38
2023-04-28T09:07:40.541Z,14.84
2023-04-28T09:10:22.619Z,14.94
2023-04-28T09:12:53.511Z,14.99
2023-04-28T09:15:31.184Z,15.02
2023-04-28T09:18:00.785Z,14.80
2023-04-28T09:20:30.585Z,15.24
2023-04-28T09:23:14.453Z,15.47
2023-04-28T09:25:42.526Z,15.28
2023-04-28T09:28:23.313Z,15.19
2023-04-28T09:30:51.514Z,14.69
2023-04-28T09:33:19.572Z,14.27
2023-04-28T09:35:48.454Z,14.51
2023-04-28T09:38:16.675Z,14.06
2023-04-28T09:40:57.948Z,13.61
2023-04-28T09:43:32.505Z,14.68
2023-04-28T09:46:02.264Z,14.90
2023-04-28T09:48:33.093Z,14.77
2023-04-28T09:51:02.759Z,14.48
2023-04-28T09:53:31.955Z,14.86
2023-04-28T09:56:01.290Z,15.09
2023-04-28T09:58:32.976Z,15.57
2023-04-28T10:01:02.214Z,15.70
2023-04-28T10:03:32.023Z,15.87
2023-04-28T10:06:00.703Z,16.05
2023-04-28T10:08:29.607Z,15.80
2023-04-28T10:10:58.964Z,15.62
2023-04-28T10:13:27.110Z,15.98
2023-04-28T10:15:58.508Z,16.26
2023-04-28T10:18:27.410Z,16.52
2023-04-28T10:20:58.964Z,16.45
2023-04-28T10:23:48.054Z,16.61
2023-04-28T10:26:19.826Z,16.78
2023-04-28T10:28:48.580Z,16.82
2023-04-28T10:31:21.180Z,16.88
2023-04-28T10:33:49.969Z,16.39
2023-04-28T10:36:52.612Z,16.09
2023-04-28T10:39:20.843Z,16.12
2023-04-28T10:41:49.447Z,16.14
2023-04-28T10:44:45.659Z,16.48
2023-04-28T10:47:15.073Z,16.70
2023-04-28T10:50:06.889Z,16.77
2023-04-28T10:52:50.604Z,17.09
2023-04-28T10:55:28.859Z,17.16
2023-04-28T10:58:30.202Z,17.36
2023-04-28T11:01:28.403Z,16.61
2023-04-28T11:04:04.515Z,17.13
2023-04-28T11:06:34.745Z,16.86
2023-04-28T11:09:04.569Z,16.51
2023-04-28T11:11:35.111Z,16.58
2023-04-28T11:14:35.115Z,16.04
2023-04-28T11:17:04.687Z,16.07
2023-04-28T11:19:35.910Z,16.57
2023-04-28T11:22:05.382Z,17.29
2023-04-28T11:24:33.405Z,16.96
2023-04-28T11:27:02.392Z,17.02
2023-04-28T11:29:35.291Z,16.97
2023-04-28T11:32:04.044Z,16.65
2023-04-28T11:34:34.368Z,16.73
2023-04-28T11:37:03.327Z,16.36
2023-04-28T11:39:33.153Z,15.91
2023-04-28T11:42:02.695Z,16.48
2023-04-28T11:44:32.164Z,14.93
2023-04-28T11:47:02.111Z,14.89
2023-04-28T11:49:33.741Z,15.75
2023-04-28T11:52:08.651Z,16.00
2023-04-28T11:54:37.568Z,16.69
2023-04-28T11:57:06.788Z,16.76
2023-04-28T11:59:36.932Z,17.25
2023-04-28T12:02:07.587Z,17.82
2023-04-28T12:04:38.099Z,18.07
2023-04-28T12:07:10.465Z,18.12
2023-04-28T12:09:39.811Z,17.15
2023-04-28T12:12:10.065Z,18.08
2023-04-28T12:14:56.759Z,17.71
2023-04-28T12:17:26.852Z,18.43
2023-04-28T12:19:55.408Z,18.60
2023-04-28T12:22:25.508Z,18.56
2023-04-28T12:25:07.989Z,18.11
2023-04-28T12:27:39.280Z,20.27
2023-04-28T12:30:26.134Z,20.12
2023-04-28T12:32:55.994Z,21.67
2023-04-28T12:35:24.825Z,21.72
2023-04-28T12:37:55.552Z,22.62
2023-04-28T12:40:24.691Z,23.36
2023-04-28T12:42:52.993Z,23.56
2023-04-28T12:45:21.057Z,23.59
2023-04-28T12:47:49.284Z,24.37
2023-04-28T12:50:17.398Z,23.55
2023-04-28T12:52:45.567Z,24.50
2023-04-28T12:55:15.075Z,23.80
2023-04-28T12:57:43.262Z,23.07
2023-04-28T13:00:14.632Z,23.93
2023-04-28T13:02:42.828Z,23.56
2023-04-28T13:05:11.426Z,24.41
2023-04-28T13:07:39.702Z,23.82
2023-04-28T13:10:09.359Z,24.16
2023-04-28T13:12:38.737Z,24.48
2023-04-28T13:15:08.075Z,24.11
2023-04-28T13:17:36.129Z,23.51
2023-04-28T13:20:05.616Z,23.79
2023-04-28T13:22:33.655Z,23.85
2023-04-28T13:25:01.637Z,24.69
2023-04-28T13:27:30.568Z,24.72
2023-04-28T13:30:00.094Z,24.37
2023-04-28T13:32:28.310Z,24.26
2023-04-28T13:34:56.534Z,24.07
2023-04-28T13:37:24.599Z,24.46
2023-04-28T13:39:52.714Z,24.55
2023-04-28T13:42:20.775Z,24.52
2023-04-28T13:44:49.365Z,24.44
2023-04-28T13:47:18.876Z,25.19
2023-04-28T13:49:47.901Z,25.21
2023-04-28T13:52:16.204Z,24.86
2023-04-28T13:54:44.843Z,25.46
2023-04-28T13:57:13.732Z,25.05
2023-04-28T13:59:41.993Z,25.09
2023-04-28T14:02:11.721Z,25.41
2023-04-28T14:04:48.396Z,26.34
2023-04-28T14:07:16.870Z,25.30
2023-04-28T14:09:45.079Z,25.10
2023-04-28T14:12:13.950Z,25.62
2023-04-28T14:14:42.761Z,25.40
2023-04-28T14:17:11.170Z,25.54
2023-04-28T14:19:39.300Z,25.54
2023-04-28T14:22:08.778Z,24.99
2023-04-28T14:24:37.576Z,24.76
2023-04-28T14:27:05.821Z,25.06
2023-04-28T14:29:33.812Z,24.70
2023-04-28T14:32:02.297Z,24.28
2023-04-28T14:34:30.400Z,24.26
2023-04-28T14:36:58.659Z,24.11
2023-04-28T14:39:28.136Z,23.59
2023-04-28T14:41:56.328Z,23.28
2023-04-28T14:44:24.549Z,23.96
2023-04-28T14:46:53.459Z,24.10
2023-04-28T14:49:21.586Z,24.19
2023-04-28T14:51:50.380Z,23.69
2023-04-28T14:54:18.509Z,23.77
2023-04-28T14:56:47.990Z,24.27
2023-04-28T14:59:16.135Z,24.32
2023-04-28T15:01:44.322Z,24.06
2023-04-28T15:04:12.600Z,24.72
2023-04-28T15:06:40.801Z,24.63
2023-04-28T15:09:08.837Z,24.00
2023-04-28T15:11:36.885Z,23.95
2023-04-28T15:14:06.642Z,23.68
2023-04-28T15:16:34.679Z,23.49
2023-04-28T15:19:02.849Z,23.29
2023-04-28T15:21:31.203Z,23.18
2023-04-28T15:23:59.809Z,23.12
2023-04-28T15:26:29.964Z,23.23
2023-04-28T15:28:59.325Z,22.81
2023-04-28T15:31:29.170Z,22.19
2023-04-28T15:33:57.944Z,22.56
2023-04-28T15:36:26.833Z,22.22
2023-04-28T15:38:54.955Z,22.09
2023-04-28T15:41:23.222Z,21.91
2023-04-28T15:43:51.242Z,21.98
2023-04-28T15:46:19.322Z,21.75
2023-04-28T15:48:50.056Z,21.78
2023-04-28T15:51:18.629Z,22.19
2023-04-28T15:53:46.779Z,21.91
2023-04-28T15:56:15.070Z,21.96
2023-04-28T15:58:43.818Z,21.75
2023-04-28T16:01:11.957Z,21.84
2023-04-28T16:03:40.536Z,21.74
2023-04-28T16:06:11.296Z,21.63
